Flight Track Log - Related Links

Times and Time Zones

All times are in EDT time to prevent confusion due to time zone crossing. See the EJM949 flight status page for this flight to view local times or setup timezone preferences in your user account.

Time Position Orientation Groundspeed Altitude Reporting Facility
EDT Latitude Longitude Course Direction KTS MPH feet Rate Location/Type
Sat 10:24:00 PM 47.3022 -63.8075 52° Northeast  Level Estimated
Sat 10:25:00 PM 47.3845 -63.6424 54° Northeast  Level Estimated
Sat 10:26:00 PM 47.4665 -63.4767 54° Northeast  Level Estimated
Sat 10:27:00 PM 47.5482 -63.3106 54° Northeast  Level Estimated
Sat 10:28:00 PM 47.6298 -63.1439 54° Northeast  Level Estimated
Sat 10:29:00 PM 47.7111 -62.9767 54° Northeast  Level Estimated
Sat 10:30:00 PM 47.7921 -62.8090 54° Northeast  Level Estimated
Sat 10:31:00 PM 47.8729 -62.6408 54° Northeast  Level Estimated
Sat 10:32:00 PM 47.9535 -62.4720 54° Northeast  Level Estimated
Sat 10:33:00 PM 48.0338 -62.3027 55° Northeast  Level Estimated
Sat 10:34:00 PM 48.1138 -62.1329 55° Northeast  Level Estimated
Sat 10:35:00 PM 48.1936 -61.9626 55° Northeast  Level Estimated
Sat 10:36:00 PM 48.2732 -61.7917 55° Northeast  Level Estimated
Sat 10:37:00 PM 48.3525 -61.6203 55° Northeast  Level Estimated
Sat 10:38:00 PM 48.4316 -61.4484 55° Northeast  Level Estimated
Sat 10:39:00 PM 48.5104 -61.2757 55° Northeast  Level Estimated
Sat 10:40:00 PM 48.5891 -61.1025 55° Northeast  Level Estimated
Sat 10:41:00 PM 48.6674 -60.9287 56° Northeast  Level Estimated
Sat 10:42:00 PM 48.7458 -60.7539 56° Northeast  Level Estimated
Sat 10:43:00 PM 48.8238 -60.5786 56° Northeast  Level Estimated
Sat 10:44:00 PM 48.9016 -60.4027 56° Northeast  Level Estimated
Sat 10:45:00 PM 48.9791 -60.2263 56° Northeast  Level Estimated
Sat 10:46:00 PM 49.0563 -60.0494 56° Northeast  Level Estimated
Sat 10:47:00 PM 49.1333 -59.8719 56° Northeast  Level Estimated
Sat 10:48:00 PM 49.2100 -59.6938 57° Northeast  Level Estimated
Sat 10:49:00 PM 49.2864 -59.5152 57° Northeast  Level Estimated
Sat 10:50:00 PM 49.3623 -59.3368 57° Northeast  Level Estimated
Sat 10:51:00 PM 49.4379 -59.1577 57° Northeast  Level Estimated
Sat 10:52:00 PM 49.5132 -58.9781 57° Northeast  Level Estimated
Sat 10:53:00 PM 49.5882 -58.7980 57° Northeast  Level Estimated
Sat 10:54:00 PM 49.6630 -58.6173 57° Northeast  Level Estimated
Sat 10:55:00 PM 49.7374 -58.4361 58° Northeast  Level Estimated
Sat 10:56:00 PM 49.8116 -58.2543 58° Northeast  Level Estimated
Sat 10:57:00 PM 49.8855 -58.0719 58° Northeast  Level Estimated
Sat 10:58:00 PM 49.9591 -57.8890 58° Northeast  Level Estimated
Sat 10:59:00 PM 50.0325 -57.7055 58° Northeast  Level Estimated
Sat 11:00:00 PM 50.1055 -57.5215 58° Northeast  Level Estimated
Sat 11:01:00 PM 50.1782 -57.3369 58° Northeast  Level Estimated
Sat 11:02:00 PM 50.2507 -57.1517 58° Northeast  Level Estimated
Sat 11:03:00 PM 50.3228 -56.9660 59° Northeast  Level Estimated
Sat 11:04:00 PM 50.3947 -56.7797 59° Northeast  Level Estimated
Sat 11:05:00 PM 50.4662 -56.5928 59° Northeast  Level Estimated
Sat 11:06:00 PM 50.5375 -56.4054 59° Northeast  Level Estimated
Sat 11:07:00 PM 50.6085 -56.2174 59° Northeast  Level Estimated
Sat 11:08:00 PM 50.6791 -56.0289 59° Northeast  Level Estimated
Sat 11:09:00 PM 50.7500 -55.8383 59° Northeast  Level Estimated
Sat 11:10:00 PM 50.8206 -55.6471 60° Northeast  Level Estimated
Sat 11:11:00 PM 50.8909 -55.4553 60° Northeast  Level Estimated
Sat 11:12:00 PM 50.9608 -55.2630 60° Northeast  Level Estimated
Sat 11:13:00 PM 51.0305 -55.0701 60° Northeast  Level Estimated
Sat 11:14:00 PM 51.0998 -54.8766 60° Northeast  Level Estimated
Sat 11:15:00 PM 51.1688 -54.6825 60° Northeast  Level Estimated
Sat 11:16:00 PM 51.2375 -54.4878 61° Northeast  Level Estimated
Sat 11:17:00 PM 51.3058 -54.2926 61° Northeast  Level Estimated
Sat 11:18:00 PM 51.3739 -54.0968 61° Northeast  Level Estimated
Sat 11:19:00 PM 51.4416 -53.9004 61° Northeast  Level Estimated
Sat 11:20:00 PM 51.5089 -53.7034 61° Northeast  Level Estimated
Sat 11:21:00 PM 51.5760 -53.5058 61° Northeast  Level Estimated
Sat 11:22:00 PM 51.6427 -53.3077 61° Northeast  Level Estimated
Sat 11:23:00 PM 51.7091 -53.1090 62° Northeast  Level Estimated
Sat 11:24:00 PM 51.7751 -52.9096 62° Northeast  Level Estimated
Sat 11:25:00 PM 51.8408 -52.7097 62° Northeast  Level Estimated
Sat 11:26:00 PM 51.9062 -52.5093 62° Northeast  Level Estimated
Sat 11:27:00 PM 51.9712 -52.3082 62° Northeast  Level Estimated
Sat 11:28:00 PM 52.0359 -52.1066 62° Northeast  Level Estimated
Sat 11:29:00 PM 52.1002 -51.9043 63° Northeast  Level Estimated
Sat 11:30:00 PM 52.1642 -51.7015 63° Northeast  Level Estimated
Sat 11:31:00 PM 52.2279 -51.4981 63° Northeast  Level Estimated
Sat 11:32:00 PM 52.2911 -51.2942 63° Northeast  Level Estimated
Sat 11:33:00 PM 52.3541 -51.0896 63° Northeast  Level Estimated
Sat 11:34:00 PM 52.4167 -50.8845 63° Northeast  Level Estimated
Sat 11:35:00 PM 52.4789 -50.6787 64° Northeast  Level Estimated
Sat 11:36:00 PM 52.5407 -50.4724 64° Northeast  Level Estimated
Sat 11:37:00 PM 52.6023 -50.2656 64° Northeast  Level Estimated
Sat 11:38:00 PM 52.6634 -50.0581 64° Northeast  Level Estimated
Sat 11:39:00 PM 52.7242 -49.8501 64° Northeast  Level Estimated
Sat 11:40:00 PM 52.7846 -49.6414 64° Northeast  Level Estimated
Sat 11:41:00 PM 52.8447 -49.4322 65° Northeast  Level Estimated
Sat 11:42:00 PM 52.9043 -49.2225 65° Northeast  Level Estimated
Sat 11:43:00 PM 52.9634 -49.0130 65° Northeast  Level Estimated
Sat 11:44:00 PM 53.0221 -48.8031 65° Northeast  Level Estimated
Sat 11:45:00 PM 53.0804 -48.5925 65° Northeast  Level Estimated
Sat 11:46:00 PM 53.1385 -48.3808 65° Northeast  Level Estimated
Sat 11:47:00 PM 53.1962 -48.1685 66° East  Level Estimated
Sat 11:48:00 PM 53.2535 -47.9557 66° East  Level Estimated
Sat 11:49:00 PM 53.3105 -47.7423 66° East  Level Estimated
Sat 11:50:00 PM 53.3671 -47.5283 66° East  Level Estimated
Sat 11:51:00 PM 53.4233 -47.3137 66° East  Level Estimated
Sat 11:52:00 PM 53.4791 -47.0986 66° East  Level Estimated
Sat 11:53:00 PM 53.5345 -46.8829 67° East  Level Estimated
Sat 11:54:00 PM 53.5894 -46.6672 67° East  Level Estimated
Sat 11:55:00 PM 53.6439 -46.4509 67° East  Level Estimated
Sat 11:56:00 PM 53.6981 -46.2340 67° East  Level Estimated
Sat 11:57:00 PM 53.7518 -46.0165 67° East  Level Estimated
Sat 11:58:00 PM 53.8053 -45.7977 67° East  Level Estimated
Sat 11:59:00 PM 53.8585 -45.5784 68° East  Level Estimated
Sun 12:00:00 AM 53.9112 -45.3585 68° East  Level Estimated
Sun 12:01:00 AM 53.9635 -45.1381 68° East  Level Estimated
Sun 12:02:00 AM 54.0154 -44.9171 68° East  Level Estimated
Sun 12:03:00 AM 54.0670 -44.6955 68° East  Level Estimated
Sun 12:04:00 AM 54.1181 -44.4735 68° East  Level Estimated
Sun 12:05:00 AM 54.1688 -44.2508 69° East  Level Estimated
Sun 12:06:00 AM 54.2191 -44.0276 69° East  Level Estimated
Sun 12:07:00 AM 54.2689 -43.8039 69° East  Level Estimated
Sun 12:08:00 AM 54.3184 -43.5797 69° East  Level Estimated
Sun 12:09:00 AM 54.3674 -43.3549 69° East  Level Estimated
Sun 12:10:00 AM 54.4161 -43.1295 70° East  Level Estimated
Sun 12:11:00 AM 54.4643 -42.9036 70° East  Level Estimated
Sun 12:12:00 AM 54.5121 -42.6772 70° East  Level Estimated
Sun 12:13:00 AM 54.5594 -42.4503 70° East  Level Estimated
Sun 12:14:00 AM 54.6063 -42.2229 70° East  Level Estimated
Sun 12:15:00 AM 54.6529 -41.9949 70° East  Level Estimated
Sun 12:16:00 AM 54.6989 -41.7664 71° East  Level Estimated
Sun 12:17:00 AM 54.7446 -41.5374 71° East  Level Estimated
Sun 12:18:00 AM 54.7898 -41.3078 71° East  Level Estimated
Sun 12:19:00 AM 54.8346 -41.0778 71° East  Level Estimated
Sun 12:20:00 AM 54.8789 -40.8473 71° East  Level Estimated
Sun 12:21:00 AM 54.9228 -40.6162 72° East  Level Estimated
Sun 12:22:00 AM 54.9663 -40.3847 72° East  Level Estimated
Sun 12:23:00 AM 55.0093 -40.1526 72° East  Level Estimated
Sun 12:24:00 AM 55.0519 -39.9201 72° East  Level Estimated
Sun 12:25:00 AM 55.0941 -39.6870 72° East  Level Estimated
Sun 12:26:00 AM 55.1357 -39.4535 73° East  Level Estimated
Sun 12:27:00 AM 55.1770 -39.2195 73° East  Level Estimated
Sun 12:28:00 AM 55.2178 -38.9850 73° East  Level Estimated
Sun 12:29:00 AM 55.2581 -38.7500 73° East  Level Estimated
Sun 12:30:00 AM 55.2980 -38.5145 73° East  Level Estimated
Sun 12:31:00 AM 55.3375 -38.2786 74° East  Level Estimated
Sun 12:32:00 AM 55.3765 -38.0422 74° East  Level Estimated
Sun 12:33:00 AM 55.4150 -37.8054 74° East  Level Estimated
Sun 12:34:00 AM 55.4531 -37.5681 74° East  Level Estimated
Sun 12:35:00 AM 55.4907 -37.3303 74° East  Level Estimated
Sun 12:36:00 AM 55.5278 -37.0921 75° East  Level Estimated
Sun 12:37:00 AM 55.5645 -36.8534 75° East  Level Estimated
Sun 12:38:00 AM 55.6007 -36.6143 75° East  Level Estimated
Sun 12:39:00 AM 55.6365 -36.3747 75° East  Level Estimated
Sun 12:40:00 AM 55.6718 -36.1348 75° East  Level Estimated
Sun 12:41:00 AM 55.7066 -35.8943 75° East  Level Estimated
Sun 12:42:00 AM 55.7410 -35.6535 76° East  Level Estimated
Sun 12:43:00 AM 55.7748 -35.4122 76° East  Level Estimated
Sun 12:44:00 AM 55.8082 -35.1705 76° East  Level Estimated
Sun 12:45:00 AM 55.8412 -34.9285 76° East  Level Estimated
Sun 12:46:00 AM 55.8736 -34.6860 76° East  Level Estimated
Sun 12:47:00 AM 55.9056 -34.4431 77° East  Level Estimated
Sun 12:48:00 AM 55.9371 -34.1997 77° East  Level Estimated
Sun 12:49:00 AM 55.9681 -33.9561 77° East  Level Estimated
Sun 12:50:00 AM 55.9987 -33.7120 77° East  Level Estimated
Sun 12:51:00 AM 56.0287 -33.4675 77° East  Level Estimated
Sun 12:52:00 AM 56.0583 -33.2227 78° East  Level Estimated
Sun 12:53:00 AM 56.0874 -32.9774 78° East  Level Estimated
Sun 12:54:00 AM 56.1160 -32.7319 78° East  Level Estimated
Sun 12:55:00 AM 56.1441 -32.4859 78° East  Level Estimated
Sun 12:56:00 AM 56.1717 -32.2396 79° East  Level Estimated
Sun 12:57:00 AM 56.1988 -31.9930 79° East  Level Estimated
Sun 12:58:00 AM 56.2255 -31.7460 79° East  Level Estimated
Sun 12:59:00 AM 56.2516 -31.4986 79° East  Level Estimated
Sun 01:00:00 AM 56.2772 -31.2509 79° East  Level Estimated
Sun 01:01:00 AM 56.3024 -31.0029 80° East  Level Estimated
Sun 01:02:00 AM 56.3271 -30.7546 80° East  Level Estimated
Sun 01:03:00 AM 56.3512 -30.5060 80° East  Level Estimated
Sun 01:04:00 AM 56.3749 -30.2570 80° East  Level Estimated
Sun 01:05:00 AM 56.3980 -30.0077 80° East  Level Estimated
Sun 01:06:00 AM 56.4207 -29.7582 81° East  Level Estimated
Sun 01:07:00 AM 56.4429 -29.5083 81° East  Level Estimated
Sun 01:08:00 AM 56.4645 -29.2582 81° East  Level Estimated
Sun 01:09:00 AM 56.4857 -29.0077 81° East  Level Estimated
Sun 01:10:00 AM 56.5063 -28.7570 81° East  Level Estimated
Sun 01:11:00 AM 56.5265 -28.5060 82° East  Level Estimated
Sun 01:12:00 AM 56.5461 -28.2548 82° East  Level Estimated
Sun 01:13:00 AM 56.5653 -28.0033 82° East  Level Estimated
Sun 01:14:00 AM 56.5839 -27.7516 82° East  Level Estimated
Sun 01:15:00 AM 56.6020 -27.4996 82° East  Level Estimated
Sun 01:16:00 AM 56.6196 -27.2473 83° East  Level Estimated
Sun 01:17:00 AM 56.6367 -26.9949 83° East  Level Estimated
Sun 01:18:00 AM 56.6533 -26.7422 83° East  Level Estimated
Sun 01:19:00 AM 56.6694 -26.4893 83° East  Level Estimated
Sun 01:20:00 AM 56.6849 -26.2362 84° East  Level Estimated
Sun 01:21:00 AM 56.7000 -25.9828 84° East  Level Estimated
Sun 01:22:00 AM 56.7145 -25.7293 84° East  Level Estimated
Sun 01:23:00 AM 56.7285 -25.4756 84° East  Level Estimated
Sun 01:24:00 AM 56.7420 -25.2217 84° East  Level Estimated
Sun 01:25:00 AM 56.7550 -24.9676 85° East  Level Estimated
Sun 01:26:00 AM 56.7675 -24.7134 85° East  Level Estimated
Sun 01:27:00 AM 56.7794 -24.4589 85° East  Level Estimated
Sun 01:28:00 AM 56.7909 -24.2043 85° East  Level Estimated
Sun 01:29:00 AM 56.8018 -23.9496 85° East  Level Estimated
Sun 01:30:00 AM 56.8121 -23.6947 86° East  Level Estimated
Sun 01:31:00 AM 56.8220 -23.4397 86° East  Level Estimated
Sun 01:32:00 AM 56.8314 -23.1846 86° East  Level Estimated
Sun 01:33:00 AM 56.8402 -22.9293 86° East  Level Estimated
Sun 01:34:00 AM 56.8485 -22.6740 86° East  Level Estimated
Sun 01:35:00 AM 56.8563 -22.4185 87° East  Level Estimated
Sun 01:36:00 AM 56.8636 -22.1629 87° East  Level Estimated
Sun 01:37:00 AM 56.8703 -21.9072 87° East  Level Estimated
Sun 01:38:00 AM 56.8765 -21.6514 87° East  Level Estimated
Sun 01:39:00 AM 56.8822 -21.3955 88° East  Level Estimated
Sun 01:40:00 AM 56.8874 -21.1396 88° East  Level Estimated
Sun 01:41:00 AM 56.8921 -20.8836 88° East  Level Estimated
Sun 01:42:00 AM 56.8962 -20.6275 88° East  Level Estimated
Sun 01:43:00 AM 56.8998 -20.3714 88° East  Level Estimated
Sun 01:44:00 AM 56.9029 -20.1152 89° East  Level Estimated
Sun 01:45:00 AM 56.9055 -19.8590 89° East  Level Estimated
Sun 01:46:00 AM 56.9075 -19.6028 89° East  Level Estimated
Sun 01:47:00 AM 56.9090 -19.3465 89° East  Level Estimated
Sun 01:48:00 AM 56.9100 -19.0903 89° East  Level Estimated
Sun 01:49:00 AM 56.9105 -18.8340 90° East  Level Estimated
Sun 01:50:00 AM 56.9104 -18.5777 90° East  Level Estimated
Sun 01:51:00 AM 56.9098 -18.3214 90° East  Level Estimated
Sun 01:52:00 AM 56.9087 -18.0651 90° East  Level Estimated
Sun 01:53:00 AM 56.9071 -17.8089 91° East  Level Estimated
Sun 01:54:00 AM 56.9049 -17.5527 91° East  Level Estimated
Sun 01:55:00 AM 56.9022 -17.2965 91° East  Level Estimated
Sun 01:56:00 AM 56.8990 -17.0403 91° East  Level Estimated
Sun 01:57:00 AM 56.8953 -16.7842 91° East  Level Estimated
Sun 01:58:00 AM 56.8910 -16.5282 92° East  Level Estimated
Sun 01:59:00 AM 56.8863 -16.2722 92° East  Level Estimated
Sun 02:00:00 AM 56.8810 -16.0162 92° East  Level Estimated
Sun 02:01:00 AM 56.8751 -15.7604 92° East  Level Estimated
Sun 02:02:00 AM 56.8688 -15.5046 92° East  Level Estimated
Sun 02:03:00 AM 56.8619 -15.2490 93° East  Level Estimated
Sun 02:04:00 AM 56.8545 -14.9934 93° East  Level Estimated
Sun 02:05:00 AM 56.8466 -14.7379 93° East  Level Estimated
Sun 02:06:00 AM 56.8382 -14.4826 93° East  Level Estimated
Sun 02:07:00 AM 56.8292 -14.2273 94° East  Level Estimated
Sun 02:08:00 AM 56.8198 -13.9722 94° East  Level Estimated
Sun 02:09:00 AM 56.8098 -13.7172 94° East  Level Estimated
Sun 02:10:00 AM 56.7993 -13.4624 94° East  Level Estimated
Sun 02:11:00 AM 56.7882 -13.2077 94° East  Level Estimated
Sun 02:12:00 AM 56.7767 -12.9532 95° East  Level Estimated
Sun 02:13:00 AM 56.7646 -12.6988 95° East  Level Estimated
Sun 02:14:00 AM 56.7520 -12.4446 95° East  Level Estimated
Sun 02:15:00 AM 56.7389 -12.1905 95° East  Level Estimated
Sun 02:16:00 AM 56.7253 -11.9367 95° East  Level Estimated
Sun 02:17:00 AM 56.7112 -11.6830 96° East  Level Estimated
Sun 02:18:00 AM 56.6965 -11.4295 96° East  Level Estimated
Sun 02:19:00 AM 56.6814 -11.1762 96° East  Level Estimated
Sun 02:20:00 AM 56.6657 -10.9232 96° East  Level Estimated
Sun 02:21:00 AM 56.6495 -10.6703 97° East  Level Estimated
Sun 02:22:00 AM 56.6328 -10.4177 97° East  Level Estimated
Sun 02:23:00 AM 56.6156 -10.1653 97° East  Level Estimated
Sun 02:24:00 AM 56.5978 -9.9131 97° East  Level Estimated
Sun 02:25:00 AM 56.5796 -9.6611 97° East  Level Estimated
Sun 02:26:00 AM 56.5609 -9.4094 98° East  Level Estimated
Sun 02:27:00 AM 56.5416 -9.1580 98° East  Level Estimated
Sun 02:28:00 AM 56.5219 -8.9068 98° East  Level Estimated
Sun 02:29:00 AM 56.5016 -8.6559 98° East  Level Estimated
Sun 02:30:00 AM 56.4808 -8.4053 98° East  Level Estimated
Sun 02:31:00 AM 56.4595 -8.1549 99° East  Level Estimated
Sun 02:32:00 AM 56.4378 -7.9048 99° East  Level Estimated
Sun 02:33:00 AM 56.4155 -7.6550 99° East  Level Estimated
Sun 02:34:00 AM 56.3927 -7.4056 99° East  Level Estimated
Sun 02:35:00 AM 56.3694 -7.1564 99° East  Level Estimated
Sun 02:36:00 AM 56.3456 -6.9075 100° East  Level Estimated
Sun 02:37:00 AM 56.3214 -6.6589 100° East  Level Estimated
Sun 02:38:00 AM 56.2966 -6.4106 100° East  Level Estimated
Sun 02:39:00 AM 56.2713 -6.1627 100° East  Level Estimated
Sun 02:40:00 AM 56.2455 -5.9151 101° East  Level Estimated
Sun 02:41:00 AM 56.2193 -5.6679 101° East  Level Estimated
Sun 02:42:00 AM 56.1925 -5.4209 101° East  Level Estimated
Sun 02:43:00 AM 56.1653 -5.1744 101° East  Level Estimated
Sun 02:44:00 AM 56.1376 -4.9282 101° East  Level Estimated
Sun 02:45:00 AM 56.1093 -4.6823 102° East  Level Estimated
Sun 02:46:00 AM 56.0806 -4.4368 102° East  Level Estimated
Sun 02:47:00 AM 56.0514 -4.1917 102° East  Level Estimated
Sun 02:48:00 AM 56.0218 -3.9469 102° East  Level Estimated
Sun 02:49:00 AM 55.9916 -3.7025 102° East  Level Estimated
Sun 02:50:00 AM 55.9609 -3.4585 103° East  Level Estimated
Sun 02:51:00 AM 55.9500 -3.3725 103° East  Level Estimated
Sun 02:52:00 AM 55.9500 -3.3725 North  Level Estimated
Sun 02:53:00 AM 55.9500 -3.3725 North  Level Estimated
Sun 02:54:00 AM 55.9500 -3.3725 North  Level Estimated
Sun 02:55:00 AM 55.9500 -3.3725 North  Level Estimated
Sun 02:56:00 AM 55.9500 -3.3725 North  Level Estimated
Sun 02:57:00 AM 55.9500 -3.3725 North  Level Estimated
Sun 02:58:00 AM 55.9500 -3.3725 North  Level Estimated
Sun 02:59:00 AM 55.9500 -3.3725 North  Level Estimated
Sun 03:00:00 AM 55.9500 -3.3725 North  Level Estimated
Sun 03:01:00 AM 55.9500 -3.3725 North  Level Estimated
Sun 03:02:00 AM 55.9500 -3.3725 North  Level Estimated
Sun 03:03:00 AM 55.9500 -3.3725 North  Level Estimated
Sun 03:04:00 AM 55.9500 -3.3725 North  Level Estimated
Sun 03:04:09 AM 56.3357 -4.4502 North 306 352 10,700  Level FlightAware UK
Sun 03:04:45 AM 56.3094 -4.3690 120° Southeast 288 331 10,000 -1,286 Descending FlightAware UK
Sun 03:05:33 AM 56.2749 -4.2622 120° Southeast 284 327 8,900 -1,286 Descending FlightAware UK
Sun 03:06:09 AM 56.2492 -4.1834 120° Southeast 278 320 8,200 -750 Descending FlightAware UK
Sun 03:06:45 AM 56.2236 -4.1058 121° Southeast 280 322 8,000 -167 Descending FlightAware UK
Sun 03:07:21 AM 56.1987 -4.0295 120° Southeast 280 322 8,000  Level FlightAware UK
Sun 03:07:57 AM 56.1737 -3.9520 120° Southeast 280 322 8,000  Level FlightAware UK
Sun 03:08:45 AM 56.1411 -3.8541 121° Southeast 258 297 8,000  Level FlightAware UK
Sun 03:09:21 AM 56.1261 -3.7759 109° East 256 295 8,000  Level FlightAware UK
Sun 03:09:57 AM 56.1112 -3.6967 109° East 246 283 8,000 -667 Level FlightAware UK
Sun 03:10:33 AM 56.0981 -3.6248 108° East 230 265 7,200 -1,500 Descending FlightAware UK
Sun 03:11:09 AM 56.0931 -3.5490 97° East 230 265 6,200 -1,667 Descending FlightAware UK
Sun 03:11:45 AM 56.0905 -3.4731 93° East 226 260 5,200 -1,500 Descending FlightAware UK
Sun 03:12:57 AM 56.0846 -3.3242 94° East 218 251 3,500 -1,111 Descending FlightAware UK
Sun 03:13:33 AM 56.0789 -3.2593 99° East 188 216 3,200 -627 Descending FlightAware UK
Sun 03:14:04 AM 56.0592 -3.2251 136° Southeast 180 207 2,800 -818 Descending FlightAware UK
Sun 03:14:39 AM 56.0375 -3.1895 138° Southeast 162 186 2,300 -462 Descending FlightAware UK
Sun 03:15:09 AM 56.0163 -3.1831 170° South 166 191 2,300 -295 Level FlightAware UK
Sun 03:15:40 AM 56.0053 -3.2091 233° Southwest 162 186 2,000 -667 Descending FlightAware UK
Sun 03:16:21 AM 55.9915 -3.2481 238° Southwest 164 189 1,500 -701 Descending FlightAware UK
Sun 03:16:57 AM 55.9807 -3.2820 240° Southwest 138 159 1,100 -667 Descending FlightAware UK
Sun 03:19:00 AM 55.9500 -3.3725 239° Southwest  Level Estimated
Sun 03:26:00 AM 55.9500 -3.3725 North  Level Estimated
Sun 03:27:00 AM 55.9500 -3.3725 North  Level Estimated
Sun 03:28:00 AM 55.9500 -3.3725 North  Level Estimated
Sun 03:29:00 AM 55.9500 -3.3725 North  Level Estimated

Login

Don't have an account? Register now (free) for customized features, flight alerts, and more!